Time;durP1;ratioP1;P1;durP2;ratioP2;P2;SDS_P1;SDS_P2;PMS_P1;PMS_P2;Temp;Humidity;BMP_temperature;BMP_pressure;BME280_temperature;BME280_humidity;BME280_pressure;Samples;Min_cycle;Max_cycle;Signal;HPM_P1;HPM_P2
2021/06/02 00:02:16;;;;;;;0.20;0.20;;;;;;;10.35;87.71;100503.41;1729846;82;21543;-44
2021/06/02 00:04:45;;;;;;;0.20;0.20;;;;;;;10.32;87.93;100498.77;1729572;82;21042;-46
2021/06/02 00:07:20;;;;;;;1.55;0.55;;;;;;;10.30;88.21;100506.41;1719708;83;21042;-44
2021/06/02 00:09:47;;;;;;;0.20;0.20;;;;;;;10.28;88.33;100496.30;1731965;82;21091;-43
2021/06/02 00:12:15;;;;;;;1.07;0.40;;;;;;;10.27;88.58;100497.38;1733346;81;21036;-46
2021/06/02 00:14:42;;;;;;;0.40;0.40;;;;;;;10.28;88.66;100496.86;1750696;80;21047;-43
2021/06/02 00:17:11;;;;;;;0.78;0.78;;;;;;;10.28;88.25;100494.13;1740219;81;21043;-46
2021/06/02 00:19:37;;;;;;;0.30;0.30;;;;;;;10.31;88.12;100500.39;1740794;80;21036;-43
2021/06/02 00:22:06;;;;;;;0.33;0.28;;;;;;;10.30;88.27;100503.68;1750661;81;21084;-47
2021/06/02 00:24:32;;;;;;;0.30;0.30;;;;;;;10.27;88.63;100493.84;1750613;80;21035;-42
2021/06/02 00:27:02;;;;;;;0.40;0.40;;;;;;;10.24;89.29;100499.86;1723553;83;21077;-47
2021/06/02 00:29:33;;;;;;;3.10;0.80;;;;;;;10.18;89.29;100508.59;1763431;80;21081;-43
2021/06/02 00:32:06;;;;;;;0.72;0.65;;;;;;;10.11;89.92;100508.89;1789721;80;21026;-42
2021/06/02 00:34:33;;;;;;;0.53;0.30;;;;;;;10.03;91.18;100500.42;1747678;81;21067;-42
2021/06/02 00:37:02;;;;;;;0.65;0.65;;;;;;;9.94;91.79;100510.24;1733643;81;21070;-42
2021/06/02 00:39:29;;;;;;;0.40;0.40;;;;;;;9.87;92.63;100515.45;1707267;82;21054;-43
2021/06/02 00:41:56;;;;;;;1.22;0.62;;;;;;;9.83;93.08;100510.25;1734585;82;21592;-43
2021/06/02 00:44:22;;;;;;;0.70;0.60;;;;;;;9.78;93.32;100506.16;1734334;82;21014;-42
2021/06/02 00:46:51;;;;;;;0.55;0.55;;;;;;;9.74;93.69;100509.14;1734561;82;21059;-46
2021/06/02 00:49:24;;;;;;;0.80;0.80;;;;;;;9.69;94.46;100505.05;1734625;81;21053;-47
2021/06/02 00:51:58;;;;;;;0.88;0.88;;;;;;;9.65;94.76;100495.24;1707549;82;21098;-42
2021/06/02 00:54:26;;;;;;;0.70;0.70;;;;;;;9.68;94.77;100486.50;1734445;81;21074;-46
2021/06/02 00:56:55;;;;;;;1.02;0.80;;;;;;;9.66;95.18;100490.05;1734781;82;21445;-43
2021/06/02 00:59:35;;;;;;;0.35;0.35;;;;;;;9.66;94.90;100481.05;1734681;81;21058;-43
2021/06/02 01:02:02;;;;;;;0.60;0.50;;;;;;;9.65;95.04;100490.34;1720639;81;21014;-42
2021/06/02 01:04:29;;;;;;;0.72;0.72;;;;;;;9.64;94.95;100488.16;1734371;82;21026;-43
2021/06/02 01:06:56;;;;;;;1.17;0.60;;;;;;;9.67;95.03;100485.43;1734636;82;21046;-43
2021/06/02 01:09:24;;;;;;;0.50;0.50;;;;;;;9.68;95.08;100489.78;1734617;82;21005;-47
2021/06/02 01:11:51;;;;;;;1.52;0.80;;;;;;;9.71;94.39;100488.42;1706511;84;21055;-43
2021/06/02 01:14:21;;;;;;;1.95;0.93;;;;;;;9.75;93.89;100484.87;1734550;82;21592;-43
2021/06/02 01:16:50;;;;;;;0.30;0.30;;;;;;;9.79;93.70;100485.98;1707039;84;21043;-46
2021/06/02 01:19:21;;;;;;;0.62;0.62;;;;;;;9.79;93.62;100486.50;1734761;82;21736;-43
2021/06/02 01:21:57;;;;;;;0.80;0.78;;;;;;;9.79;93.71;100483.25;1732727;81;21046;-42
2021/06/02 01:24:27;;;;;;;4.87;0.98;;;;;;;9.82;93.28;100486.79;1734406;81;21026;-48
2021/06/02 01:26:55;;;;;;;0.80;0.80;;;;;;;9.83;93.10;100487.05;1734652;82;21030;-42
2021/06/02 01:29:22;;;;;;;1.17;0.90;;;;;;;9.85;92.96;100487.59;1734436;81;21053;-46
2021/06/02 01:32:32;;;;;;;0.17;0.17;;;;;;;9.84;92.96;100487.34;1727726;82;21006;-43
2021/06/02 01:35:44;;;;;;;1.62;0.70;;;;;;;9.86;93.01;100493.88;1705176;82;21038;-46
2021/06/02 01:38:24;;;;;;;0.20;0.20;;;;;;;9.87;92.79;100490.06;1699983;83;21043;-42
2021/06/02 01:41:07;;;;;;;0.20;0.20;;;;;;;9.84;93.21;100492.80;1726908;81;21003;-47
2021/06/02 01:44:24;;;;;;;0.37;0.30;;;;;;;9.81;93.48;100485.14;1726657;83;21011;-43
2021/06/02 01:47:26;;;;;;;0.40;0.40;;;;;;;9.81;93.59;100489.78;1726579;83;21047;-42
2021/06/02 01:50:29;;;;;;;0.72;0.47;;;;;;;9.77;94.13;100496.34;1710008;83;21091;-47
2021/06/02 01:53:23;;;;;;;0.10;0.10;;;;;;;9.72;94.51;100496.34;1732818;82;21579;-46
2021/06/02 01:55:59;;;;;;;0.37;0.28;;;;;;;9.67;95.59;100493.06;1791157;78;20990;-47
2021/06/02 01:58:52;;;;;;;0.75;0.75;;;;;;;9.63;96.22;100502.06;1773684;79;21549;-45
2021/06/02 02:01:44;;;;;;;1.37;0.95;;;;;;;9.57;96.94;100501.25;1786959;80;21094;-43
2021/06/02 02:04:35;;;;;;;1.02;0.23;;;;;;;9.52;97.66;100498.52;1791081;80;21014;-46
2021/06/02 02:07:27;;;;;;;0.30;0.30;;;;;;;9.43;99.41;100500.94;1778054;80;21060;-43
2021/06/02 02:10:39;;;;;;;1.02;1.02;;;;;;;9.43;99.41;100500.94;1774998;80;21371;-44
2021/06/02 02:13:36;;;;;;;0.25;0.23;;;;;;;9.40;100.00;100497.40;1775212;80;21022;-43
2021/06/02 02:16:26;;;;;;;0.60;0.60;;;;;;;9.38;100.00;100507.76;1699394;83;21089;-45
2021/06/02 02:19:21;;;;;;;2.05;0.50;;;;;;;9.35;100.00;100499.31;1726872;83;21019;-45
2021/06/02 02:22:02;;;;;;;0.53;0.53;;;;;;;9.32;100.00;100501.19;1729311;81;21647;-46
2021/06/02 02:25:05;;;;;;;0.95;0.42;;;;;;;9.26;100.00;100509.91;1732459;82;21532;-44
2021/06/02 02:27:55;;;;;;;1.27;0.60;;;;;;;9.19;100.00;100503.89;1733094;82;21481;-46
2021/06/02 02:30:45;;;;;;;0.85;0.42;;;;;;;9.14;100.00;100505.24;1732588;82;21830;-44
2021/06/02 02:33:26;;;;;;;2.40;1.22;;;;;;;9.11;100.00;100501.70;1786673;80;21005;-46
2021/06/02 02:36:24;;;;;;;1.75;0.65;;;;;;;9.11;100.00;100500.34;1763926;80;21058;-43
2021/06/02 02:39:01;;;;;;;1.77;1.12;;;;;;;9.09;100.00;100497.05;1790239;78;21041;-43
2021/06/02 02:42:17;;;;;;;1.05;0.90;;;;;;;9.06;100.00;100489.42;1791328;80;21045;-42
2021/06/02 02:45:09;;;;;;;1.07;0.98;;;;;;;9.04;100.00;100487.76;1760074;80;21046;-47
2021/06/02 02:48:10;;;;;;;0.88;0.88;;;;;;;9.02;100.00;100489.12;1760128;81;21023;-44
2021/06/02 02:50:59;;;;;;;1.62;1.22;;;;;;;9.00;100.00;100475.78;1777731;80;21066;-43
2021/06/02 02:53:48;;;;;;;0.95;0.70;;;;;;;9.00;100.00;100492.13;1771891;80;20994;-47
2021/06/02 02:56:22;;;;;;;1.77;1.15;;;;;;;8.99;100.00;100482.84;1791066;80;21350;-45
2021/06/02 02:59:31;;;;;;;1.45;0.55;;;;;;;8.97;100.00;100479.02;1765489;80;21052;-43
2021/06/02 03:02:12;;;;;;;0.40;0.40;;;;;;;9.00;100.00;100479.02;1753499;81;21022;-43
2021/06/02 03:04:48;;;;;;;0.68;0.45;;;;;;;8.99;100.00;100493.20;1751024;81;21051;-47
2021/06/02 03:07:14;;;;;;;1.17;1.10;;;;;;;8.97;100.00;100483.10;1706473;82;21634;-43
2021/06/02 03:10:03;;;;;;;0.47;0.45;;;;;;;8.98;100.00;100473.86;1682956;82;21046;-43
2021/06/02 03:12:59;;;;;;;0.62;0.62;;;;;;;8.99;100.00;100497.84;1788365;80;21003;-47
2021/06/02 03:15:47;;;;;;;0.45;0.40;;;;;;;9.00;100.00;100497.58;1790730;78;21057;-43
2021/06/02 03:18:26;;;;;;;0.47;0.40;;;;;;;9.01;100.00;100490.22;1726745;83;21134;-43
2021/06/02 03:21:20;;;;;;;0.35;0.35;;;;;;;9.02;100.00;100496.74;1712001;83;21620;-47
2021/06/02 03:24:17;;;;;;;1.07;0.82;;;;;;;9.04;100.00;100495.94;1726847;81;21039;-42
2021/06/02 03:26:57;;;;;;;1.07;0.80;;;;;;;9.04;100.00;100497.30;1726815;83;21075;-47
2021/06/02 03:30:03;;;;;;;0.25;0.25;;;;;;;9.06;100.00;100494.87;1721745;81;21026;-44
2021/06/02 03:33:09;;;;;;;0.53;0.53;;;;;;;9.07;100.00;100500.58;1726446;83;21102;-43
2021/06/02 03:36:02;;;;;;;1.22;1.00;;;;;;;9.07;100.00;100488.31;1678485;84;21094;-44
2021/06/02 03:38:50;;;;;;;1.25;1.15;;;;;;;9.07;100.00;100491.05;1727133;83;21099;-43
2021/06/02 03:41:57;;;;;;;1.17;0.72;;;;;;;9.07;100.00;100491.05;1761506;80;21035;-43
2021/06/02 03:45:07;;;;;;;0.68;0.55;;;;;;;9.06;100.00;100482.60;1726619;81;21475;-44
2021/06/02 03:47:40;;;;;;;1.02;0.98;;;;;;;9.09;100.00;100491.59;1753621;81;21092;-43
2021/06/02 03:50:21;;;;;;;0.68;0.57;;;;;;;9.10;100.00;100482.32;1763368;80;21037;-46
2021/06/02 03:53:30;;;;;;;0.65;0.62;;;;;;;9.11;100.00;100483.98;1728546;81;20923;-44
2021/06/02 03:56:34;;;;;;;0.80;0.60;;;;;;;9.10;100.00;100479.08;1651580;85;21098;-49
2021/06/02 03:59:44;;;;;;;0.55;0.53;;;;;;;9.12;100.00;100482.88;1666131;86;21224;-48
2021/06/02 04:02:28;;;;;;;1.05;0.50;;;;;;;9.12;100.00;100486.41;1740098;82;21579;-45
2021/06/02 04:05:35;;;;;;;1.27;1.25;;;;;;;9.12;100.00;100478.23;1758865;81;21059;-45
2021/06/02 04:08:45;;;;;;;1.67;1.57;;;;;;;9.13;100.00;100477.17;1699626;83;21488;-45
2021/06/02 04:11:42;;;;;;;2.17;1.00;;;;;;;9.14;100.00;100482.88;1727217;83;21040;-49
2021/06/02 04:14:09;;;;;;;2.25;0.82;;;;;;;9.12;100.00;100480.96;1709446;81;21533;-50
2021/06/02 04:16:40;;;;;;;2.58;1.15;;;;;;;9.12;100.00;100488.33;1733599;81;21068;-46
2021/06/02 04:19:16;;;;;;;1.27;0.50;;;;;;;9.11;100.00;100483.98;1740831;81;21402;-48
2021/06/02 04:21:46;;;;;;;0.78;0.68;;;;;;;9.10;100.00;100485.89;1741411;81;21033;-49
2021/06/02 04:24:15;;;;;;;0.72;0.70;;;;;;;9.12;100.00;100488.33;1745292;81;21066;-47
2021/06/02 04:26:42;;;;;;;0.45;0.33;;;;;;;9.12;100.00;100489.69;1743824;81;21078;-48
2021/06/02 04:29:13;;;;;;;0.85;0.85;;;;;;;9.13;100.00;100489.98;1740571;81;21057;-45
2021/06/02 04:31:57;;;;;;;0.72;0.72;;;;;;;9.14;100.00;100480.70;1740551;81;26572;-49
2021/06/02 04:34:26;;;;;;;0.80;0.70;;;;;;;9.14;100.00;100488.88;1712437;82;21045;-45
2021/06/02 04:36:57;;;;;;;0.90;0.90;;;;;;;9.13;100.00;100483.17;1739566;82;21042;-50
2021/06/02 04:39:24;;;;;;;1.10;0.75;;;;;;;9.14;100.00;100485.61;1732065;82;21026;-45
2021/06/02 04:42:01;;;;;;;1.98;1.22;;;;;;;9.16;100.00;100479.34;1731363;81;21062;-45
2021/06/02 04:44:29;;;;;;;0.42;0.42;;;;;;;9.17;100.00;100497.36;1717635;81;21034;-45
2021/06/02 04:46:56;;;;;;;0.85;0.80;;;;;;;9.20;100.00;100478.28;1735461;81;21069;-46
2021/06/02 04:49:40;;;;;;;1.07;0.70;;;;;;;9.21;100.00;100482.08;1732107;81;21365;-45
2021/06/02 04:52:34;;;;;;;0.78;0.75;;;;;;;9.23;100.00;100481.83;1697226;84;21018;-46
2021/06/02 04:55:48;;;;;;;1.02;0.93;;;;;;;9.25;100.00;100470.11;1701549;82;21054;-44
2021/06/02 04:58:35;;;;;;;0.57;0.53;;;;;;;9.26;100.00;100464.92;1776610;80;21069;-45
2021/06/02 05:01:36;;;;;;;1.12;0.70;;;;;;;9.28;100.00;100475.56;1759438;80;21582;-45
2021/06/02 05:04:44;;;;;;;0.90;0.72;;;;;;;9.28;100.00;100479.11;1791539;78;21185;-44
2021/06/02 05:07:54;;;;;;;0.55;0.55;;;;;;;9.30;100.00;100467.39;1670084;85;21672;-45
2021/06/02 05:10:29;;;;;;;0.30;0.30;;;;;;;9.32;100.00;100472.03;1744842;81;21646;-50
2021/06/02 05:13:12;;;;;;;1.52;0.60;;;;;;;9.33;100.00;100468.20;1740613;81;21574;-45
2021/06/02 05:16:19;;;;;;;0.90;0.60;;;;;;;9.35;100.00;100472.03;1741300;81;21049;-45
2021/06/02 05:20:17;;;;;;;0.70;0.70;;;;;;;9.36;100.00;100477.75;1736547;81;21086;-48
2021/06/02 05:22:39;;;;;;;0.75;0.60;;;;;;;9.37;100.00;100480.22;1717883;82;20975;-45
2021/06/02 05:25:44;;;;;;;2.72;1.07;;;;;;;9.39;100.00;100466.30;1737469;81;21034;-44
2021/06/02 05:28:47;;;;;;;0.53;0.20;;;;;;;9.41;100.00;100473.12;1732059;82;21011;-45
2021/06/02 05:32:08;;;;;;;0.55;0.55;;;;;;;9.44;100.00;100464.38;1732329;82;21063;-44
2021/06/02 05:35:20;;;;;;;0.55;0.53;;;;;;;9.46;100.00;100456.75;1732026;81;20995;-46
2021/06/02 05:38:40;;;;;;;1.65;0.90;;;;;;;9.51;100.00;100461.95;1732175;81;21089;-44
2021/06/02 05:41:49;;;;;;;0.62;0.62;;;;;;;9.55;100.00;100462.50;1732314;82;21035;-46
2021/06/02 05:44:33;;;;;;;0.57;0.53;;;;;;;9.57;100.00;100462.21;1732015;81;21018;-45
2021/06/02 05:47:48;;;;;;;0.28;0.28;;;;;;;9.59;100.00;100464.13;1729497;82;21586;-44
2021/06/02 05:51:12;;;;;;;1.35;0.75;;;;;;;9.61;100.00;100468.77;1731099;81;21038;-45
2021/06/02 05:54:15;;;;;;;0.70;0.60;;;;;;;9.63;100.00;100474.78;1732293;81;21037;-45
2021/06/02 05:57:05;;;;;;;0.28;0.28;;;;;;;9.65;100.00;100471.23;1730411;82;21508;-45
2021/06/02 06:00:03;;;;;;;0.40;0.40;;;;;;;9.66;100.00;100482.41;1732096;81;21059;-45
2021/06/02 06:03:12;;;;;;;1.37;0.80;;;;;;;9.68;100.00;100474.23;1732375;82;21018;-45
2021/06/02 06:06:03;;;;;;;0.57;0.57;;;;;;;9.72;100.00;100469.58;1732311;81;21054;-44
2021/06/02 06:09:05;;;;;;;0.30;0.30;;;;;;;9.74;100.00;100477.77;1732380;82;21027;-45
2021/06/02 06:12:21;;;;;;;0.60;0.60;;;;;;;9.75;100.00;100478.05;1732429;82;21968;-48
2021/06/02 06:15:09;;;;;;;0.45;0.45;;;;;;;9.77;100.00;100488.16;1732445;81;21049;-45
2021/06/02 06:18:18;;;;;;;0.68;0.68;;;;;;;9.80;100.00;100486.23;1732498;82;21046;-47
2021/06/02 06:21:22;;;;;;;1.25;0.93;;;;;;;9.81;100.00;100490.59;1732245;81;21014;-47
2021/06/02 06:23:58;;;;;;;1.20;1.10;;;;;;;9.84;100.00;100491.44;1732460;81;21070;-48
2021/06/02 06:26:36;;;;;;;0.75;0.75;;;;;;;9.87;100.00;100491.44;1732250;82;21568;-45
2021/06/02 06:29:46;;;;;;;0.55;0.55;;;;;;;9.87;100.00;100494.97;1732491;82;21133;-44
2021/06/02 06:32:12;;;;;;;1.98;0.47;;;;;;;9.90;100.00;100497.15;1732396;82;21583;-44
2021/06/02 06:34:39;;;;;;;0.50;0.50;;;;;;;9.95;100.00;100496.88;1701350;82;21046;-47
2021/06/02 06:37:07;;;;;;;0.45;0.25;;;;;;;9.97;100.00;100498.80;1732274;82;21528;-45
2021/06/02 06:39:52;;;;;;;1.12;0.88;;;;;;;9.99;100.00;100498.80;1701623;82;21058;-45
2021/06/02 06:42:24;;;;;;;1.05;0.55;;;;;;;10.03;100.00;100502.59;1696448;84;21022;-47
2021/06/02 06:44:54;;;;;;;;;;;;;;;10.05;100.00;100505.06;1703438;82;21702;-44
2021/06/02 06:47:20;;;;;;;0.53;0.53;;;;;;;10.06;100.00;100508.05;1732402;81;20217;-47
2021/06/02 06:49:53;;;;;;;0.68;0.57;;;;;;;10.05;100.00;100505.88;1732528;81;21014;-45
2021/06/02 06:52:23;;;;;;;1.15;1.12;;;;;;;10.06;100.00;100513.52;1732667;82;21123;-49
2021/06/02 06:54:52;;;;;;;0.40;0.40;;;;;;;10.09;100.00;100511.63;1731938;82;21543;-45
2021/06/02 06:57:20;;;;;;;0.72;0.53;;;;;;;10.10;100.00;100510.52;1732271;82;21022;-47
2021/06/02 06:59:47;;;;;;;1.20;0.33;;;;;;;10.13;100.00;100509.95;1732322;82;21039;-48
2021/06/02 07:02:14;;;;;;;2.12;0.65;;;;;;;10.15;100.00;100507.78;1732330;82;21031;-47
2021/06/02 07:04:41;;;;;;;3.35;1.98;;;;;;;10.15;100.00;100513.23;1676974;82;21054;-47
2021/06/02 07:07:09;;;;;;;2.10;1.10;;;;;;;10.19;100.00;100512.13;1732554;82;21540;-47
2021/06/02 07:09:36;;;;;;;0.57;0.42;;;;;;;10.20;100.00;100503.67;1732372;81;21030;-47
2021/06/02 07:12:04;;;;;;;0.65;0.65;;;;;;;10.24;100.00;100506.69;1732295;82;21090;-48
2021/06/02 07:16:42;;;;;;;0.53;0.53;;;;;;;10.36;100.00;100509.13;1816410;77;22078;-84
2021/06/02 07:19:09;;;;;;;1.07;0.78;;;;;;;10.35;100.00;100502.05;1780678;80;20998;-84
2021/06/02 07:21:40;;;;;;;1.80;0.90;;;;;;;10.39;100.00;100505.88;1750092;80;21014;-84
2021/06/02 07:24:08;;;;;;;1.25;0.75;;;;;;;10.41;100.00;100503.13;1725488;80;21025;-85
2021/06/02 07:26:35;;;;;;;2.30;0.95;;;;;;;10.44;100.00;100501.76;1750350;80;21483;-84
2021/06/02 07:29:01;;;;;;;0.60;0.50;;;;;;;10.47;100.00;100511.57;1780089;80;20983;-84
2021/06/02 07:31:28;;;;;;;1.12;0.93;;;;;;;10.50;100.00;100513.74;1780226;80;21045;-85
2021/06/02 07:33:56;;;;;;;1.55;1.37;;;;;;;10.54;100.00;100514.02;1780328;80;21018;-84
2021/06/02 07:36:23;;;;;;;2.75;0.60;;;;;;;10.57;100.00;100520.29;1780200;80;21524;-84
2021/06/02 07:38:51;;;;;;;1.75;0.70;;;;;;;10.60;100.00;100521.09;1780121;80;20978;-85
2021/06/02 07:41:18;;;;;;;2.35;0.98;;;;;;;10.65;100.00;100527.91;1780235;80;21022;-84
2021/06/02 07:43:46;;;;;;;0.45;0.45;;;;;;;10.70;100.00;100521.06;1782820;80;21467;-84
2021/06/02 07:46:12;;;;;;;1.17;0.95;;;;;;;10.74;100.00;100524.88;1782419;80;20985;-85
2021/06/02 07:48:38;;;;;;;1.20;1.05;;;;;;;10.79;100.00;100521.87;1780848;80;20962;-84
2021/06/02 07:51:05;;;;;;;0.53;0.53;;;;;;;10.81;100.00;100508.75;1783518;80;20978;-84
2021/06/02 07:53:32;;;;;;;0.62;0.62;;;;;;;10.86;100.00;100510.91;1781216;80;21010;-84
2021/06/02 07:55:59;;;;;;;0.93;0.93;;;;;;;10.93;100.00;100513.34;1773649;80;21487;-85
2021/06/02 07:58:26;;;;;;;1.65;0.80;;;;;;;10.97;100.00;100512.48;1763099;80;21025;-84
2021/06/02 08:00:52;;;;;;;1.95;0.90;;;;;;;11.01;100.00;100510.02;1779718;79;21449;-85
2021/06/02 08:03:20;;;;;;;0.35;0.35;;;;;;;11.06;100.00;100510.55;1780434;80;20978;-85
2021/06/02 08:05:47;;;;;;;0.50;0.50;;;;;;;11.13;100.00;100515.16;1779850;80;21848;-84
2021/06/02 08:08:13;;;;;;;0.33;0.33;;;;;;;11.18;100.00;100517.31;1780261;80;20990;-84
2021/06/02 08:10:42;;;;;;;1.82;1.42;;;;;;;11.24;100.00;100510.45;1779957;80;21399;-84
2021/06/02 08:13:10;;;;;;;0.20;0.20;;;;;;;11.29;100.00;100510.41;1780329;80;20978;-84
2021/06/02 08:15:37;;;;;;;0.88;0.68;;;;;;;11.33;100.00;100514.23;1741970;80;21076;-84
2021/06/02 08:18:05;;;;;;;0.40;0.40;;;;;;;11.37;100.00;100520.75;1734124;82;21029;-84
2021/06/02 08:20:33;;;;;;;0.30;0.30;;;;;;;11.40;100.00;100527.05;1700876;84;21076;-84
2021/06/02 08:23:00;;;;;;;2.00;0.57;;;;;;;11.38;100.00;100523.22;1686401;85;20959;-85
2021/06/02 08:25:27;;;;;;;0.68;0.57;;;;;;;11.38;100.00;100528.69;1686400;85;21030;-84
2021/06/02 08:27:54;;;;;;;1.55;0.80;;;;;;;11.37;100.00;100532.54;1701466;84;21037;-84
2021/06/02 08:30:21;;;;;;;1.02;0.50;;;;;;;11.36;100.00;100536.91;1673121;85;21002;-84
2021/06/02 08:32:48;;;;;;;0.75;0.68;;;;;;;11.34;100.00;100545.95;1698446;84;21048;-84
2021/06/02 08:35:18;;;;;;;3.12;0.93;;;;;;;11.27;100.00;100544.88;1698216;83;21008;-85
2021/06/02 08:37:46;;;;;;;0.60;0.60;;;;;;;11.22;100.00;100553.67;1698959;83;21005;-84
2021/06/02 08:40:13;;;;;;;0.75;0.75;;;;;;;11.15;100.00;100549.86;1698471;84;21045;-84
2021/06/02 08:42:42;;;;;;;0.30;0.30;;;;;;;11.11;100.00;100550.17;1698236;83;20977;-84
2021/06/02 08:45:11;;;;;;;0.62;0.62;;;;;;;11.09;100.00;100547.70;1698518;83;21434;-84
2021/06/02 08:47:38;;;;;;;0.60;0.60;;;;;;;11.10;100.00;100546.63;1698144;84;20986;-85
2021/06/02 08:50:07;;;;;;;1.07;0.60;;;;;;;11.10;100.00;100548.00;1672454;84;21424;-85
2021/06/02 08:52:37;;;;;;;1.57;0.88;;;;;;;11.11;100.00;100542.78;1698355;83;21488;-85
2021/06/02 08:55:09;;;;;;;0.85;0.85;;;;;;;11.14;100.00;100554.52;1698509;83;21128;-84
2021/06/02 08:57:40;;;;;;;0.62;0.57;;;;;;;11.13;100.00;100557.55;1698357;84;21463;-85
2021/06/02 09:00:12;;;;;;;0.45;0.45;;;;;;;11.11;100.00;100550.98;1698552;84;21077;-85
2021/06/02 09:02:39;;;;;;;0.70;0.70;;;;;;;11.09;100.00;100552.36;1698854;84;20916;-85
2021/06/02 09:05:08;;;;;;;0.85;0.82;;;;;;;11.08;100.00;100565.23;1702006;83;21074;-85
2021/06/02 09:07:37;;;;;;;1.50;0.93;;;;;;;11.10;100.00;100562.20;1701279;84;21036;-85
2021/06/02 09:10:10;;;;;;;0.35;0.28;;;;;;;11.10;100.00;100556.20;1711954;82;21003;-86
2021/06/02 09:12:41;;;;;;;0.82;0.82;;;;;;;11.11;100.00;100555.09;1702310;82;21486;-84
2021/06/02 09:15:13;;;;;;;2.12;1.02;;;;;;;11.13;100.00;100561.10;1704161;83;21185;-85
2021/06/02 09:17:58;;;;;;;1.17;0.90;;;;;;;11.15;100.00;100563.02;1728796;82;21022;-85
2021/06/02 09:20:50;;;;;;;0.78;0.78;;;;;;;11.17;100.00;100562.71;1728662;81;21688;-85
2021/06/02 09:23:38;;;;;;;0.60;0.60;;;;;;;11.21;100.00;100562.98;1728398;83;21020;-84
2021/06/02 09:26:14;;;;;;;1.85;0.80;;;;;;;11.24;100.00;100563.78;1729038;81;21073;-85
2021/06/02 09:29:03;;;;;;;0.62;0.55;;;;;;;11.29;100.00;100563.20;1728532;83;21056;-85
2021/06/02 09:31:41;;;;;;;2.17;1.55;;;;;;;11.32;100.00;100552.24;1728550;81;21448;-85
2021/06/02 09:34:22;;;;;;;0.65;0.65;;;;;;;11.37;100.00;100557.69;1728524;83;21479;-85
2021/06/02 09:36:51;;;;;;;1.02;0.95;;;;;;;11.40;100.00;100563.98;1728631;81;21033;-86
2021/06/02 09:39:21;;;;;;;0.47;0.37;;;;;;;11.41;100.00;100571.08;1728605;82;21005;-86
2021/06/02 09:41:52;;;;;;;0.70;0.60;;;;;;;11.43;100.00;100568.08;1728505;81;21500;-86
2021/06/02 09:44:28;;;;;;;0.80;0.40;;;;;;;11.39;100.00;100574.64;1728815;83;21033;-85
2021/06/02 09:47:11;;;;;;;0.57;0.57;;;;;;;11.34;100.00;100569.20;1729448;81;21511;-85
2021/06/02 09:49:56;;;;;;;0.53;0.50;;;;;;;11.31;100.00;100571.14;1737449;81;21049;-86
2021/06/02 09:52:50;;;;;;;0.98;0.65;;;;;;;11.26;100.00;100562.96;1736058;81;21000;-86
2021/06/02 09:55:26;;;;;;;0.20;0.20;;;;;;;11.26;100.00;100562.41;1731645;82;21533;-86
2021/06/02 09:58:08;;;;;;;0.57;0.57;;;;;;;11.26;100.00;100565.70;1729439;82;21068;-86
2021/06/02 10:00:45;;;;;;;0.82;0.57;;;;;;;11.26;100.00;100558.86;1730047;82;21575;-86
2021/06/02 10:03:18;;;;;;;0.68;0.40;;;;;;;11.28;100.00;100553.38;1759676;81;21056;-88
2021/06/02 10:05:47;;;;;;;0.82;0.65;;;;;;;11.31;100.00;100564.30;1731891;82;21466;-86
2021/06/02 10:08:31;;;;;;;1.22;0.70;;;;;;;11.36;100.00;100562.91;1731725;82;20988;-87
2021/06/02 10:11:16;;;;;;;0.90;0.70;;;;;;;11.38;100.00;100562.08;1731898;82;21394;-86
2021/06/02 10:13:42;;;;;;;0.65;0.60;;;;;;;11.44;100.00;100570.52;1731903;82;20988;-86
2021/06/02 10:16:10;;;;;;;0.70;0.40;;;;;;;11.46;100.00;100571.05;1724678;81;21546;-87
2021/06/02 10:18:38;;;;;;;1.30;0.95;;;;;;;11.50;100.00;100580.34;1737235;82;21512;-86
2021/06/02 10:21:13;;;;;;;0.62;0.55;;;;;;;11.50;100.00;100570.77;1737165;82;21001;-86
2021/06/02 10:23:44;;;;;;;1.02;0.90;;;;;;;11.50;100.00;100573.50;1737028;82;20977;-87
2021/06/02 10:26:14;;;;;;;0.60;0.60;;;;;;;11.52;100.00;100587.73;1745021;81;21103;-86
2021/06/02 10:28:43;;;;;;;1.80;1.17;;;;;;;11.54;100.00;100578.66;1737309;82;21009;-87
2021/06/02 10:31:11;;;;;;;1.02;0.60;;;;;;;11.57;100.00;100575.91;1736855;81;21032;-87
2021/06/02 10:33:37;;;;;;;1.00;0.60;;;;;;;11.59;100.00;100588.77;1737463;82;20912;-86
2021/06/02 10:36:07;;;;;;;1.47;1.37;;;;;;;11.61;100.00;100577.80;1737424;82;21044;-86
2021/06/02 10:38:50;;;;;;;0.80;0.80;;;;;;;11.64;100.00;100587.36;1737277;82;21529;-86
2021/06/02 10:41:27;;;;;;;0.30;0.30;;;;;;;11.65;100.00;100581.33;1730509;81;21072;-86
2021/06/02 10:43:58;;;;;;;1.20;0.75;;;;;;;11.63;100.00;100585.73;1731581;81;21061;-86
2021/06/02 10:46:27;;;;;;;0.93;0.93;;;;;;;11.62;100.00;100584.92;1745146;81;20981;-87
2021/06/02 10:48:56;;;;;;;1.05;0.98;;;;;;;11.63;100.00;100576.16;1708842;82;21045;-86
2021/06/02 10:51:29;;;;;;;4.20;1.30;;;;;;;11.62;100.00;100576.72;1708052;82;21021;-87
2021/06/02 10:54:13;;;;;;;0.80;0.78;;;;;;;11.66;100.00;100581.61;1733201;82;21029;-86
2021/06/02 10:56:58;;;;;;;5.42;1.65;;;;;;;11.68;100.00;100579.42;1737261;82;21017;-86
2021/06/02 10:59:31;;;;;;;0.30;0.30;;;;;;;11.70;100.00;100578.59;1737138;82;21069;-86
2021/06/02 11:02:29;;;;;;;2.80;1.30;;;;;;;11.73;100.00;100581.56;1745409;81;21538;-86
2021/06/02 11:05:01;;;;;;;1.45;1.30;;;;;;;11.77;100.00;100585.91;1737354;82;21080;-86
2021/06/02 11:07:31;;;;;;;0.50;0.50;;;;;;;11.83;100.00;100582.86;1708070;82;21077;-84
2021/06/02 11:10:11;;;;;;;0.68;0.65;;;;;;;11.88;100.00;100593.55;1715385;82;21423;-84
2021/06/02 11:13:00;;;;;;;0.95;0.80;;;;;;;11.96;100.00;100593.75;1744828;82;21500;-83
2021/06/02 11:15:42;;;;;;;1.45;0.55;;;;;;;12.01;100.00;100596.45;1744802;82;21069;-84
2021/06/02 11:18:18;;;;;;;0.45;0.45;;;;;;;12.07;100.00;100593.14;1737465;82;21057;-84
2021/06/02 11:20:57;;;;;;;1.02;0.93;;;;;;;12.13;100.00;100604.86;1745112;81;21475;-84
2021/06/02 11:23:35;;;;;;;0.50;0.50;;;;;;;12.17;100.00;100607.31;1732859;82;21056;-84
2021/06/02 11:26:26;;;;;;;0.60;0.60;;;;;;;12.19;100.00;100607.81;1708348;82;21514;-84
2021/06/02 11:28:55;;;;;;;1.00;0.95;;;;;;;12.19;100.00;100605.08;1706184;82;21431;-84
2021/06/02 11:31:27;;;;;;;0.50;0.50;;;;;;;12.20;100.00;100606.73;1731694;82;21488;-84
2021/06/02 11:34:27;;;;;;;0.60;0.35;;;;;;;12.19;100.00;100611.39;1706403;82;21064;-84
2021/06/02 11:37:05;;;;;;;0.98;0.50;;;;;;;12.19;100.00;100605.92;1710106;83;21073;-85
2021/06/02 11:39:36;;;;;;;2.00;0.55;;;;;;;12.24;100.00;100605.06;1737577;82;21016;-85
2021/06/02 11:42:06;;;;;;;2.83;0.88;;;;;;;12.28;100.00;100605.30;1708389;82;21488;-84
2021/06/02 11:44:36;;;;;;;1.92;1.62;;;;;;;12.34;100.00;100609.08;1737483;82;21011;-83
2021/06/02 11:47:03;;;;;;;0.42;0.42;;;;;;;12.41;100.00;100606.83;1708176;82;20985;-84
2021/06/02 11:49:32;;;;;;;0.88;0.55;;;;;;;12.46;100.00;100609.52;1737529;82;21486;-84
2021/06/02 11:52:11;;;;;;;1.17;0.78;;;;;;;12.51;100.00;100616.05;1737262;82;21017;-84
2021/06/02 11:54:51;;;;;;;0.75;0.55;;;;;;;12.54;100.00;100616.86;1745447;81;20981;-84
2021/06/02 11:57:27;;;;;;;2.00;0.95;;;;;;;12.57;100.00;100608.86;1737185;82;21009;-87
2021/06/02 11:59:55;;;;;;;2.50;0.80;;;;;;;12.61;100.00;100609.09;1737493;82;20997;-86
2021/06/02 12:02:21;;;;;;;0.50;0.45;;;;;;;12.64;100.00;100612.65;1708962;82;21010;-87
2021/06/02 12:04:47;;;;;;;0.47;0.47;;;;;;;12.66;100.00;100618.63;1737588;82;21045;-84
2021/06/02 12:07:24;;;;;;;0.80;0.80;;;;;;;12.67;100.00;100616.17;1737564;81;21052;-84
2021/06/02 12:09:51;;;;;;;1.42;0.72;;;;;;;12.64;100.00;100601.69;1737780;81;21017;-86
2021/06/02 12:12:18;;;;;;;1.05;1.00;;;;;;;12.62;100.00;100608.81;1714194;83;21020;-87
2021/06/02 12:14:54;;;;;;;2.40;0.72;;;;;;;12.63;100.00;100611.80;1737752;82;21506;-85
2021/06/02 12:17:29;;;;;;;1.65;0.90;;;;;;;12.65;100.00;100604.67;1756269;81;20969;-85
2021/06/02 12:19:56;;;;;;;0.30;0.30;;;;;;;12.68;100.00;100608.20;1733491;81;21407;-86
2021/06/02 12:22:24;;;;;;;1.02;0.60;;;;;;;12.70;100.00;100619.70;1729608;82;21024;-87